createdAt,value
2023-01-21T00:00:24.492Z,0.00
2023-01-21T00:01:24.773Z,0.00
2023-01-21T00:02:25.074Z,0.00
2023-01-21T00:03:25.421Z,0.00
2023-01-21T00:04:25.697Z,0.00
2023-01-21T00:05:25.951Z,0.00
2023-01-21T00:06:26.174Z,0.00
2023-01-21T00:07:26.414Z,0.00
2023-01-21T00:08:26.710Z,0.00
2023-01-21T00:09:26.931Z,0.00
2023-01-21T00:10:27.232Z,0.00
2023-01-21T00:11:27.472Z,0.00
2023-01-21T00:12:27.746Z,0.00
2023-01-21T00:13:27.984Z,0.00
2023-01-21T00:14:28.231Z,0.00
2023-01-21T00:15:28.561Z,0.00
2023-01-21T00:16:28.714Z,0.00
2023-01-21T00:17:29.085Z,0.00
2023-01-21T00:18:30.174Z,0.00
2023-01-21T00:19:29.557Z,0.00
2023-01-21T00:20:30.034Z,0.00
2023-01-21T00:21:30.119Z,0.00
2023-01-21T00:22:30.376Z,0.00
2023-01-21T00:23:30.633Z,0.00
2023-01-21T00:24:30.866Z,0.00
2023-01-21T00:25:31.146Z,0.00
2023-01-21T00:26:31.446Z,0.00
2023-01-21T00:27:31.694Z,0.00
2023-01-21T00:28:31.966Z,0.00
2023-01-21T00:29:32.278Z,0.00
2023-01-21T00:30:32.633Z,0.00
2023-01-21T00:31:32.953Z,0.00
2023-01-21T00:32:33.188Z,0.00
2023-01-21T00:33:33.469Z,0.00
2023-01-21T00:34:33.702Z,0.00
2023-01-21T00:35:33.993Z,0.00
2023-01-21T00:36:34.238Z,0.00
2023-01-21T00:37:34.527Z,0.00
2023-01-21T00:38:34.759Z,0.00
2023-01-21T00:39:35.017Z,0.00
2023-01-21T00:40:35.296Z,0.00
2023-01-21T00:41:35.540Z,0.00
2023-01-21T00:42:35.861Z,0.00
2023-01-21T00:43:36.128Z,0.00
2023-01-21T00:44:36.411Z,0.00
2023-01-21T00:45:36.728Z,0.00
2023-01-21T00:46:37.013Z,0.00
2023-01-21T00:47:37.291Z,0.00
2023-01-21T00:48:37.559Z,0.00
2023-01-21T00:49:37.829Z,0.00
2023-01-21T00:50:38.115Z,0.00
2023-01-21T00:51:38.390Z,0.00
2023-01-21T00:52:38.643Z,0.00
2023-01-21T00:53:38.890Z,0.00
2023-01-21T00:54:39.139Z,0.00
2023-01-21T00:55:39.400Z,0.00
2023-01-21T00:56:39.630Z,0.00
2023-01-21T00:57:39.909Z,0.00
2023-01-21T00:58:40.205Z,0.00
2023-01-21T00:59:40.583Z,0.00
2023-01-21T01:00:40.861Z,0.00
2023-01-21T01:01:41.154Z,0.00
2023-01-21T01:02:41.424Z,0.00
2023-01-21T01:03:41.682Z,0.00
2023-01-21T01:04:41.964Z,0.00
2023-01-21T01:05:42.235Z,0.00
2023-01-21T01:06:42.496Z,0.00
2023-01-21T01:07:42.757Z,0.00
2023-01-21T01:08:43.124Z,0.00
2023-01-21T01:09:43.447Z,0.00
2023-01-21T01:10:43.614Z,0.00
2023-01-21T01:11:43.891Z,0.00
2023-01-21T01:12:44.182Z,0.00
2023-01-21T01:13:44.442Z,0.00
2023-01-21T01:14:44.680Z,0.00
2023-01-21T01:15:44.979Z,0.00
2023-01-21T01:16:45.252Z,0.00
2023-01-21T01:17:45.524Z,0.00
2023-01-21T01:18:45.812Z,0.00
2023-01-21T01:19:46.055Z,0.00
2023-01-21T01:20:46.315Z,0.00
2023-01-21T01:21:46.617Z,0.00
2023-01-21T01:22:46.948Z,0.00
2023-01-21T01:23:47.220Z,0.00
2023-01-21T01:24:47.485Z,0.00
2023-01-21T01:25:47.750Z,0.00
2023-01-21T01:26:48.003Z,0.00
2023-01-21T01:27:48.245Z,0.00
2023-01-21T01:28:48.519Z,0.00
2023-01-21T01:29:48.744Z,0.00
2023-01-21T01:30:49.233Z,0.00
2023-01-21T01:31:49.538Z,0.00
2023-01-21T01:32:49.660Z,0.00
2023-01-21T01:33:49.884Z,0.00
2023-01-21T01:34:50.235Z,0.00
2023-01-21T01:35:50.389Z,0.00
2023-01-21T01:36:50.671Z,0.00
2023-01-21T01:37:50.915Z,0.00
2023-01-21T01:38:51.331Z,0.00
2023-01-21T01:39:51.399Z,0.00
2023-01-21T01:40:51.686Z,0.00
2023-01-21T01:41:51.948Z,0.00
2023-01-21T01:42:52.205Z,0.00
2023-01-21T01:43:52.480Z,0.00
2023-01-21T01:44:52.698Z,0.00
2023-01-21T01:45:52.969Z,0.00
2023-01-21T01:46:53.229Z,0.00
2023-01-21T01:47:53.426Z,0.00
2023-01-21T01:48:53.783Z,0.00
2023-01-21T01:49:54.035Z,0.00
2023-01-21T01:50:54.323Z,0.00
2023-01-21T01:51:54.615Z,0.00
2023-01-21T01:52:54.985Z,0.00
2023-01-21T01:53:55.093Z,0.00
2023-01-21T01:54:55.333Z,0.00
2023-01-21T01:55:55.559Z,0.00
2023-01-21T01:56:55.876Z,0.00
2023-01-21T01:57:56.301Z,0.00
2023-01-21T01:58:56.696Z,0.00
2023-01-21T01:59:56.797Z,0.00
2023-01-21T02:00:56.963Z,0.00
2023-01-21T02:01:57.205Z,0.00
2023-01-21T02:02:57.493Z,0.00
2023-01-21T02:03:57.740Z,0.00
2023-01-21T02:04:58.082Z,0.00
2023-01-21T02:05:58.440Z,0.00
2023-01-21T02:06:58.677Z,0.00
2023-01-21T02:07:58.887Z,0.00
2023-01-21T02:08:59.282Z,0.00
2023-01-21T02:09:59.498Z,0.00
2023-01-21T02:10:59.863Z,0.00
2023-01-21T02:12:00.107Z,0.00
2023-01-21T02:13:00.350Z,0.00
2023-01-21T02:14:00.564Z,0.00
2023-01-21T02:15:00.904Z,0.00
2023-01-21T02:16:01.335Z,0.00
2023-01-21T02:17:01.560Z,0.00
2023-01-21T02:18:01.907Z,0.00
2023-01-21T02:19:02.114Z,0.00
2023-01-21T02:20:02.460Z,0.00
2023-01-21T02:21:02.944Z,0.00
2023-01-21T02:22:03.311Z,0.00
2023-01-21T02:23:03.475Z,0.00
2023-01-21T02:24:03.845Z,0.00
2023-01-21T02:25:03.918Z,0.00
2023-01-21T02:26:04.130Z,0.00
2023-01-21T02:27:04.523Z,0.00
2023-01-21T02:28:04.733Z,0.00
2023-01-21T02:29:05.068Z,0.00
2023-01-21T02:30:05.403Z,0.00
2023-01-21T02:31:05.856Z,0.00
2023-01-21T02:32:06.047Z,0.00
2023-01-21T02:33:06.419Z,0.00
2023-01-21T02:34:06.640Z,0.00
2023-01-21T02:35:07.001Z,0.00
2023-01-21T02:36:07.260Z,0.00
2023-01-21T02:37:07.504Z,0.00
2023-01-21T02:38:07.727Z,0.00
2023-01-21T02:39:08.102Z,0.00
2023-01-21T02:40:08.301Z,0.00
2023-01-21T02:41:08.643Z,0.00
2023-01-21T02:42:08.852Z,0.00
2023-01-21T02:43:09.211Z,0.00
2023-01-21T02:44:09.425Z,0.00
2023-01-21T02:45:09.764Z,0.00
2023-01-21T02:46:10.242Z,0.00
2023-01-21T02:47:10.425Z,0.00
2023-01-21T02:48:10.643Z,0.00
2023-01-21T02:49:10.973Z,0.00
2023-01-21T02:51:30.633Z,0.00
2023-01-21T02:52:31.143Z,0.00
2023-01-21T02:53:30.933Z,0.00
2023-01-21T02:54:32.026Z,0.00
2023-01-21T02:55:32.238Z,0.00
2023-01-21T02:56:32.619Z,0.00
2023-01-21T02:57:32.194Z,0.00
2023-01-21T02:58:34.702Z,0.00
2023-01-21T02:59:32.696Z,0.00
2023-01-21T03:00:33.133Z,0.00
2023-01-21T03:01:33.478Z,0.00
2023-01-21T03:02:33.529Z,0.00
2023-01-21T03:03:33.716Z,0.00
2023-01-21T03:04:34.043Z,0.00
2023-01-21T03:05:34.305Z,0.00
2023-01-21T03:06:34.781Z,0.00
2023-01-21T03:07:35.093Z,0.00
2023-01-21T03:08:35.376Z,0.00
2023-01-21T03:09:35.647Z,0.00
2023-01-21T03:10:35.857Z,0.00
2023-01-21T03:11:36.107Z,0.00
2023-01-21T03:12:36.447Z,0.00
2023-01-21T03:13:36.837Z,0.00
2023-01-21T03:14:37.077Z,0.00
2023-01-21T03:15:37.415Z,0.00
2023-01-21T03:16:37.624Z,0.00
2023-01-21T03:17:37.966Z,0.00
2023-01-21T03:18:38.774Z,0.00
2023-01-21T03:19:38.835Z,0.00
2023-01-21T03:20:39.647Z,0.00
2023-01-21T03:21:39.011Z,0.00
2023-01-21T03:22:39.280Z,0.00
2023-01-21T03:23:39.808Z,0.00
2023-01-21T03:24:40.277Z,0.00
2023-01-21T03:25:40.459Z,0.00
2023-01-21T03:26:41.867Z,0.00
2023-01-21T03:27:41.138Z,0.00
2023-01-21T03:29:46.295Z,0.00
2023-01-21T03:30:46.563Z,0.00
2023-01-21T03:31:46.803Z,0.00
2023-01-21T03:32:47.028Z,0.00
2023-01-21T03:33:47.244Z,0.00
2023-01-21T03:34:47.525Z,0.00
2023-01-21T03:35:47.749Z,0.00
2023-01-21T03:36:48.113Z,0.00
2023-01-21T03:37:48.342Z,0.00
2023-01-21T03:38:48.590Z,0.00
2023-01-21T03:39:48.798Z,0.00
2023-01-21T03:40:49.150Z,0.00
2023-01-21T03:41:49.515Z,0.00
2023-01-21T03:42:49.725Z,0.00
2023-01-21T03:43:49.974Z,0.00
2023-01-21T03:44:50.243Z,0.00
2023-01-21T03:45:50.534Z,0.00
2023-01-21T03:46:50.850Z,0.00
2023-01-21T03:47:51.116Z,0.00
2023-01-21T03:48:51.376Z,0.00
2023-01-21T03:49:51.646Z,0.00
2023-01-21T03:50:51.905Z,0.00
2023-01-21T03:51:52.128Z,0.00
2023-01-21T03:52:52.377Z,0.00
2023-01-21T03:53:52.620Z,0.00
2023-01-21T03:54:52.878Z,0.00
2023-01-21T03:55:53.169Z,0.00
2023-01-21T03:56:53.433Z,0.00
2023-01-21T03:57:53.694Z,0.00
2023-01-21T03:58:53.940Z,0.00
2023-01-21T03:59:54.181Z,0.00
2023-01-21T04:00:54.475Z,0.00
2023-01-21T04:01:54.747Z,0.00
2023-01-21T04:02:54.968Z,0.00
2023-01-21T04:03:55.218Z,0.00
2023-01-21T04:04:55.464Z,0.00
2023-01-21T04:05:55.707Z,0.00
2023-01-21T04:06:55.989Z,0.00
2023-01-21T04:07:56.250Z,0.00
2023-01-21T04:08:56.510Z,0.00
2023-01-21T04:09:56.739Z,0.00
2023-01-21T04:10:56.989Z,0.00
2023-01-21T04:11:57.271Z,0.00
2023-01-21T04:12:57.509Z,0.00
2023-01-21T04:13:57.763Z,0.00
2023-01-21T04:14:58.012Z,0.00
2023-01-21T04:15:58.261Z,0.00
2023-01-21T04:16:58.537Z,0.00
2023-01-21T04:17:58.760Z,0.00
2023-01-21T04:18:59.010Z,0.00
2023-01-21T04:19:59.271Z,0.00
2023-01-21T04:20:59.512Z,0.00
2023-01-21T04:21:59.785Z,0.00
2023-01-21T04:23:00.039Z,0.00
2023-01-21T04:24:00.287Z,0.00
2023-01-21T04:25:00.533Z,0.00
2023-01-21T04:26:00.784Z,0.00
2023-01-21T04:27:01.146Z,0.00
2023-01-21T04:28:01.364Z,0.00
2023-01-21T04:29:01.635Z,0.00
2023-01-21T04:30:01.873Z,0.00
2023-01-21T04:31:02.145Z,0.00
2023-01-21T04:32:02.509Z,0.00
2023-01-21T04:33:02.635Z,0.00
2023-01-21T04:34:02.874Z,0.00
2023-01-21T04:35:03.141Z,0.00
2023-01-21T04:36:03.470Z,0.00
2023-01-21T04:37:03.737Z,0.00
2023-01-21T04:38:03.969Z,0.00
2023-01-21T04:39:04.222Z,0.00
2023-01-21T04:40:04.468Z,0.00
2023-01-21T04:41:04.709Z,0.00
2023-01-21T04:42:04.967Z,0.00
2023-01-21T04:43:05.219Z,0.00
2023-01-21T04:44:05.437Z,0.00
2023-01-21T04:45:05.685Z,0.00
2023-01-21T04:46:05.987Z,0.00
2023-01-21T04:47:06.285Z,0.00
2023-01-21T04:48:06.525Z,0.00
2023-01-21T04:49:06.777Z,0.00
2023-01-21T04:50:07.004Z,0.00
2023-01-21T04:51:07.353Z,0.00
2023-01-21T04:52:07.514Z,0.00
2023-01-21T04:53:07.773Z,0.00
2023-01-21T04:54:07.978Z,0.00
2023-01-21T04:55:08.245Z,0.00
2023-01-21T04:56:08.482Z,0.00
2023-01-21T04:57:08.752Z,0.00
2023-01-21T04:58:09.006Z,0.00
2023-01-21T04:59:09.291Z,0.00
2023-01-21T05:00:09.562Z,0.00
2023-01-21T05:01:09.829Z,0.00
2023-01-21T05:02:10.104Z,0.00
2023-01-21T05:03:10.355Z,0.00
2023-01-21T05:04:10.589Z,0.00
2023-01-21T05:05:10.830Z,0.00
2023-01-21T05:06:11.075Z,0.00
2023-01-21T05:07:11.350Z,0.00
2023-01-21T05:08:11.595Z,0.00
2023-01-21T05:09:11.871Z,0.00
2023-01-21T05:10:12.091Z,0.00
2023-01-21T05:11:12.357Z,0.00
2023-01-21T05:12:12.617Z,0.00
2023-01-21T05:13:12.875Z,0.00
2023-01-21T05:14:13.109Z,0.00
2023-01-21T05:15:13.403Z,0.00
2023-01-21T05:16:13.673Z,0.00
2023-01-21T05:17:13.912Z,0.00
2023-01-21T05:18:14.144Z,0.00
2023-01-21T05:19:14.432Z,0.00
2023-01-21T05:20:14.799Z,0.00
2023-01-21T05:21:14.965Z,0.00
2023-01-21T05:22:15.273Z,0.00
2023-01-21T05:23:15.529Z,0.00
2023-01-21T05:24:15.746Z,0.00
2023-01-21T05:25:15.995Z,0.00
2023-01-21T05:26:16.245Z,0.00
2023-01-21T05:27:16.511Z,0.00
2023-01-21T05:28:16.736Z,0.00
2023-01-21T05:29:17.007Z,0.00
2023-01-21T05:30:17.442Z,0.00
2023-01-21T05:31:17.648Z,0.00
2023-01-21T05:32:17.822Z,0.00
2023-01-21T05:33:18.055Z,0.00
2023-01-21T05:34:18.296Z,0.00
2023-01-21T05:35:18.595Z,0.00
2023-01-21T05:36:18.864Z,0.00
2023-01-21T05:37:19.127Z,0.00
2023-01-21T05:38:19.417Z,0.00
2023-01-21T05:39:19.636Z,0.00
2023-01-21T05:40:20.117Z,0.00
2023-01-21T05:41:20.135Z,0.00
2023-01-21T05:42:20.379Z,0.00
2023-01-21T05:43:20.622Z,0.00
2023-01-21T05:44:20.857Z,0.00
2023-01-21T05:45:21.128Z,0.00
2023-01-21T05:46:21.397Z,0.00
2023-01-21T05:47:21.666Z,0.00
2023-01-21T05:48:21.886Z,0.00
2023-01-21T05:49:22.140Z,0.00
2023-01-21T05:50:22.377Z,0.00
2023-01-21T05:51:22.899Z,0.00
2023-01-21T05:52:22.877Z,0.00
2023-01-21T05:53:23.142Z,0.00
2023-01-21T05:54:23.387Z,0.00
2023-01-21T05:55:23.631Z,0.00
2023-01-21T05:56:23.868Z,0.00
2023-01-21T05:57:24.126Z,0.00
2023-01-21T05:58:24.374Z,0.00
2023-01-21T05:59:24.612Z,0.00
2023-01-21T06:00:24.874Z,0.00
2023-01-21T06:01:25.109Z,0.00
2023-01-21T06:02:25.430Z,0.00
2023-01-21T06:03:25.717Z,0.00
2023-01-21T06:04:25.963Z,0.00
2023-01-21T06:05:26.221Z,0.00
2023-01-21T06:06:26.474Z,0.00
2023-01-21T06:07:26.734Z,0.00
2023-01-21T06:08:26.994Z,0.00
2023-01-21T06:09:27.239Z,0.00
2023-01-21T06:10:27.480Z,0.00
2023-01-21T06:11:27.708Z,0.00
2023-01-21T06:12:28.000Z,0.00
2023-01-21T06:13:28.271Z,0.00
2023-01-21T06:14:28.489Z,0.00
2023-01-21T06:15:28.805Z,0.00
2023-01-21T06:16:29.056Z,0.00
2023-01-21T06:17:29.349Z,0.00
2023-01-21T06:18:29.608Z,0.00
2023-01-21T06:19:29.886Z,0.00
2023-01-21T06:20:30.112Z,0.00
2023-01-21T06:21:30.338Z,0.00
2023-01-21T06:22:30.653Z,0.00
2023-01-21T06:23:30.868Z,0.00
2023-01-21T06:24:31.126Z,0.00
2023-01-21T06:25:31.399Z,0.00
2023-01-21T06:26:31.660Z,0.00
2023-01-21T06:27:31.930Z,0.00
2023-01-21T06:28:32.197Z,0.00
2023-01-21T06:29:32.427Z,0.00
2023-01-21T06:30:32.699Z,0.00
2023-01-21T06:31:33.052Z,0.00
2023-01-21T06:32:33.309Z,0.00
2023-01-21T06:33:33.548Z,0.00
2023-01-21T06:34:33.807Z,4.00
2023-01-21T06:35:34.041Z,4.00
2023-01-21T06:36:34.290Z,4.00
2023-01-21T06:37:34.574Z,0.00
2023-01-21T06:38:34.814Z,0.00
2023-01-21T06:39:35.089Z,0.00
2023-01-21T06:40:35.342Z,4.00
2023-01-21T06:41:35.597Z,4.00
2023-01-21T06:42:35.866Z,4.00
2023-01-21T06:43:36.113Z,8.00
2023-01-21T06:44:36.368Z,4.00
2023-01-21T06:45:36.643Z,8.00
2023-01-21T06:46:38.351Z,4.00
2023-01-21T06:47:37.233Z,12.00
2023-01-21T06:48:37.481Z,12.00
2023-01-21T06:49:37.725Z,12.00
2023-01-21T06:50:38.010Z,16.00
2023-01-21T06:51:38.288Z,16.00
2023-01-21T06:52:38.576Z,20.00
2023-01-21T06:53:38.833Z,20.00
2023-01-21T06:54:39.098Z,24.00
2023-01-21T06:55:39.343Z,28.00
2023-01-21T06:56:39.606Z,32.00
2023-01-21T06:57:39.904Z,36.00
2023-01-21T06:58:40.226Z,44.00
2023-01-21T06:59:40.428Z,52.00
2023-01-21T07:00:40.688Z,64.00
2023-01-21T07:01:41.022Z,68.00
2023-01-21T07:02:41.258Z,76.00
2023-01-21T07:03:41.446Z,84.00
2023-01-21T07:04:41.734Z,92.00
2023-01-21T07:05:41.985Z,96.00
2023-01-21T07:06:42.239Z,104.00
2023-01-21T07:07:42.547Z,116.00
2023-01-21T07:08:42.814Z,116.00
2023-01-21T07:09:43.065Z,128.00
2023-01-21T07:10:43.341Z,144.00
2023-01-21T07:11:43.594Z,152.00
2023-01-21T07:12:43.923Z,156.00
2023-01-21T07:13:44.181Z,164.00
2023-01-21T07:14:44.436Z,188.00
2023-01-21T07:15:44.725Z,196.00
2023-01-21T07:16:45.010Z,212.00
2023-01-21T07:17:45.305Z,224.00
2023-01-21T07:18:45.620Z,244.00
2023-01-21T07:19:45.905Z,256.00
2023-01-21T07:20:46.163Z,272.00
2023-01-21T07:21:46.447Z,284.00
2023-01-21T07:22:46.745Z,300.00
2023-01-21T07:23:47.071Z,316.00
2023-01-21T07:24:47.331Z,332.00
2023-01-21T07:25:47.599Z,344.00
2023-01-21T07:26:47.875Z,360.00
2023-01-21T07:27:48.144Z,376.00
2023-01-21T07:28:48.419Z,392.00
2023-01-21T07:29:48.734Z,408.00
2023-01-21T07:30:49.022Z,424.00
2023-01-21T07:31:49.353Z,444.00
2023-01-21T07:32:49.793Z,460.00
2023-01-21T07:33:49.877Z,476.00
2023-01-21T07:34:50.149Z,496.00
2023-01-21T07:35:50.437Z,516.00
2023-01-21T07:36:50.699Z,540.00
2023-01-21T07:37:51.048Z,556.00
2023-01-21T07:38:51.360Z,580.00
2023-01-21T07:39:53.791Z,600.00
2023-01-21T07:40:51.928Z,628.00
2023-01-21T07:41:52.228Z,648.00
2023-01-21T07:42:52.539Z,672.00
2023-01-21T07:43:52.853Z,696.00
2023-01-21T07:44:53.125Z,720.00
2023-01-21T07:45:53.397Z,744.00
2023-01-21T07:46:53.649Z,768.00
2023-01-21T07:47:53.946Z,788.00
2023-01-21T07:48:54.206Z,812.00
2023-01-21T07:49:54.491Z,836.00
2023-01-21T07:50:54.781Z,856.00
2023-01-21T07:51:55.048Z,876.00
2023-01-21T07:52:55.380Z,896.00
2023-01-21T07:53:55.667Z,912.00
2023-01-21T07:54:55.929Z,936.00
2023-01-21T07:55:56.206Z,952.00
2023-01-21T07:56:56.484Z,968.00
2023-01-21T07:57:56.759Z,996.00
2023-01-21T07:58:57.041Z,1020.00
2023-01-21T07:59:57.328Z,1048.00
2023-01-21T08:00:57.670Z,1068.00
2023-01-21T08:01:58.096Z,1084.00
2023-01-21T08:02:58.393Z,1112.00
2023-01-21T08:03:58.543Z,1140.00
2023-01-21T08:04:58.834Z,1160.00
2023-01-21T08:05:59.159Z,1180.00
2023-01-21T08:06:59.439Z,1196.00
2023-01-21T08:07:59.776Z,1204.00
2023-01-21T08:09:00.092Z,1216.00
2023-01-21T08:10:00.383Z,1220.00
2023-01-21T08:11:00.703Z,1228.00
2023-01-21T08:12:01.000Z,1236.00
2023-01-21T08:13:01.275Z,1244.00
2023-01-21T08:14:01.578Z,1252.00
2023-01-21T08:15:01.893Z,1268.00
2023-01-21T08:16:02.243Z,1288.00
2023-01-21T08:17:02.513Z,1308.00
2023-01-21T08:18:02.836Z,1328.00
2023-01-21T08:19:03.158Z,1356.00
2023-01-21T08:20:03.419Z,1372.00
2023-01-21T08:21:03.751Z,1396.00
2023-01-21T08:22:04.062Z,1420.00
2023-01-21T08:23:04.399Z,1440.00
2023-01-21T08:24:04.684Z,1476.00
2023-01-21T08:25:04.968Z,1508.00
2023-01-21T08:26:05.246Z,1536.00
2023-01-21T08:27:05.594Z,1568.00
2023-01-21T08:28:05.922Z,1604.00
2023-01-21T08:29:06.123Z,1644.00
2023-01-21T08:30:06.430Z,1680.00
2023-01-21T08:31:06.770Z,1724.00
2023-01-21T08:32:06.983Z,1768.00
2023-01-21T08:33:07.292Z,1820.00
2023-01-21T08:34:07.581Z,1868.00
2023-01-21T08:35:07.880Z,1912.00
2023-01-21T08:36:08.175Z,1952.00
2023-01-21T08:37:08.454Z,1984.00
2023-01-21T08:38:09.719Z,2004.00
2023-01-21T08:39:09.075Z,2032.00
2023-01-21T08:40:09.398Z,2072.00
2023-01-21T08:41:09.683Z,2100.00
2023-01-21T08:42:09.983Z,2124.00
2023-01-21T08:43:10.293Z,2148.00
2023-01-21T08:44:10.585Z,2136.00
2023-01-21T08:45:10.973Z,2104.00
2023-01-21T08:46:11.145Z,2040.00
2023-01-21T08:47:11.440Z,2008.00
2023-01-21T08:48:11.743Z,2200.00
2023-01-21T08:49:12.042Z,2288.00
2023-01-21T08:50:12.307Z,2312.00
2023-01-21T08:51:12.727Z,2324.00
2023-01-21T08:52:12.891Z,2324.00
2023-01-21T08:53:13.197Z,2316.00
2023-01-21T08:54:13.435Z,2296.00
2023-01-21T08:55:13.715Z,2268.00
2023-01-21T08:56:14.015Z,2252.00
2023-01-21T08:57:14.294Z,2224.00
2023-01-21T08:58:14.596Z,2204.00
2023-01-21T08:59:14.878Z,2212.00
2023-01-21T09:00:15.168Z,2244.00
2023-01-21T09:01:15.560Z,2236.00
2023-01-21T09:02:15.784Z,2224.00
2023-01-21T09:03:16.066Z,2248.00
2023-01-21T09:04:16.372Z,2268.00
2023-01-21T09:05:16.955Z,2280.00
2023-01-21T09:06:16.937Z,2292.00
2023-01-21T09:07:17.215Z,2296.00
2023-01-21T09:08:17.506Z,2308.00
2023-01-21T09:09:17.790Z,2328.00
2023-01-21T09:10:18.839Z,2344.00
2023-01-21T09:11:18.364Z,2360.00
2023-01-21T09:12:18.660Z,2368.00
2023-01-21T09:13:18.972Z,2364.00
2023-01-21T09:14:19.286Z,2360.00
2023-01-21T09:15:19.548Z,2364.00
2023-01-21T09:16:19.864Z,2384.00
2023-01-21T09:17:20.108Z,2404.00
2023-01-21T09:18:20.394Z,2428.00
2023-01-21T09:19:20.695Z,2464.00
2023-01-21T09:20:20.980Z,2500.00
2023-01-21T09:21:21.288Z,2524.00
2023-01-21T09:22:21.627Z,2524.00
2023-01-21T09:23:21.938Z,2512.00
2023-01-21T09:24:22.210Z,2484.00
2023-01-21T09:25:23.389Z,2460.00
2023-01-21T09:26:22.821Z,2448.00
2023-01-21T09:27:23.109Z,2456.00
2023-01-21T09:28:23.409Z,2480.00
2023-01-21T09:29:31.260Z,2520.00
2023-01-21T09:30:24.132Z,2568.00
2023-01-21T09:31:24.313Z,2608.00
2023-01-21T09:32:24.634Z,2648.00
2023-01-21T09:33:25.146Z,2676.00
2023-01-21T09:34:25.126Z,2696.00
2023-01-21T09:35:25.420Z,2704.00
2023-01-21T09:36:25.707Z,2708.00
2023-01-21T09:37:26.027Z,2724.00
2023-01-21T09:38:26.388Z,2736.00
2023-01-21T09:39:26.687Z,2744.00
2023-01-21T09:40:27.037Z,2728.00
2023-01-21T09:41:27.320Z,2632.00
2023-01-21T09:42:27.440Z,2432.00
2023-01-21T09:43:27.748Z,2412.00
2023-01-21T09:44:28.032Z,2528.00
2023-01-21T09:45:28.320Z,2656.00
2023-01-21T09:46:28.587Z,2716.00
2023-01-21T09:47:28.909Z,2756.00
2023-01-21T09:48:29.278Z,2908.00
2023-01-21T09:49:29.424Z,3068.00
2023-01-21T09:50:29.703Z,3100.00
2023-01-21T09:51:30.008Z,3076.00
2023-01-21T09:52:30.283Z,3060.00
2023-01-21T09:53:30.599Z,3064.00
2023-01-21T09:54:30.914Z,3080.00
2023-01-21T09:55:31.231Z,3096.00
2023-01-21T09:56:31.509Z,3104.00
2023-01-21T09:57:31.822Z,3072.00
2023-01-21T09:58:32.109Z,3024.00
2023-01-21T09:59:32.380Z,2992.00
2023-01-21T10:00:32.645Z,2908.00
2023-01-21T10:01:32.965Z,2784.00
2023-01-21T10:02:33.254Z,2760.00
2023-01-21T10:03:33.522Z,2888.00
2023-01-21T10:04:33.729Z,2956.00
2023-01-21T10:05:33.911Z,3000.00
2023-01-21T10:06:34.179Z,3004.00
2023-01-21T10:07:34.688Z,3028.00
2023-01-21T10:08:34.786Z,2880.00
2023-01-21T10:09:35.021Z,2604.00
2023-01-21T10:10:35.331Z,2516.00
2023-01-21T10:11:35.631Z,2828.00
2023-01-21T10:12:35.932Z,2784.00
2023-01-21T10:13:36.308Z,3148.00
2023-01-21T10:14:36.495Z,3132.00
2023-01-21T10:15:36.788Z,2708.00
2023-01-21T10:16:37.166Z,2328.00
2023-01-21T10:17:37.334Z,3016.00
2023-01-21T10:18:37.667Z,3604.00
2023-01-21T10:19:37.980Z,3684.00
2023-01-21T10:20:38.345Z,3720.00
2023-01-21T10:21:38.623Z,3748.00
2023-01-21T10:22:38.942Z,3800.00
2023-01-21T10:23:39.541Z,3840.00
2023-01-21T10:24:39.480Z,3892.00
2023-01-21T10:25:39.806Z,3948.00
2023-01-21T10:26:40.236Z,4000.00
2023-01-21T10:27:40.423Z,4132.00
2023-01-21T10:28:40.645Z,4236.00
2023-01-21T10:29:40.942Z,4288.00
2023-01-21T10:30:41.382Z,4252.00
2023-01-21T10:31:41.647Z,4116.00
2023-01-21T10:32:41.880Z,3972.00
2023-01-21T10:33:42.193Z,3464.00
2023-01-21T10:34:42.488Z,3132.00
2023-01-21T10:35:42.756Z,2824.00
2023-01-21T10:36:43.200Z,2652.00
2023-01-21T10:37:43.358Z,2748.00
2023-01-21T10:38:43.673Z,3068.00
2023-01-21T10:39:43.936Z,3532.00
2023-01-21T10:40:44.239Z,4000.00
2023-01-21T10:41:44.507Z,4136.00
2023-01-21T10:42:44.777Z,4080.00
2023-01-21T10:43:45.107Z,4040.00
2023-01-21T10:44:45.381Z,3984.00
2023-01-21T10:45:45.703Z,3856.00
2023-01-21T10:46:45.977Z,3692.00
2023-01-21T10:47:46.231Z,3612.00
2023-01-21T10:48:47.863Z,3452.00
2023-01-21T10:49:46.872Z,3052.00
2023-01-21T10:50:47.247Z,3444.00
2023-01-21T10:51:47.377Z,3488.00
2023-01-21T10:52:47.672Z,3484.00
2023-01-21T10:53:47.951Z,3612.00
2023-01-21T10:54:48.219Z,3648.00
2023-01-21T10:55:48.472Z,3644.00
2023-01-21T10:56:48.738Z,3668.00
2023-01-21T10:57:49.020Z,3652.00
2023-01-21T10:58:49.349Z,3668.00
2023-01-21T10:59:49.606Z,3592.00
2023-01-21T11:00:49.872Z,3404.00
2023-01-21T11:01:50.132Z,3392.00
2023-01-21T11:02:50.528Z,3428.00
2023-01-21T11:03:50.692Z,3428.00
2023-01-21T11:04:50.949Z,3492.00
2023-01-21T11:05:51.193Z,3492.00
2023-01-21T11:06:51.432Z,3452.00
2023-01-21T11:07:51.689Z,3440.00
2023-01-21T11:08:51.991Z,3652.00
2023-01-21T11:09:52.170Z,3728.00
2023-01-21T11:10:52.477Z,3760.00
2023-01-21T11:11:52.720Z,3772.00
2023-01-21T11:12:52.981Z,3768.00
2023-01-21T11:13:53.252Z,3756.00
2023-01-21T11:14:53.552Z,3764.00
2023-01-21T11:15:53.916Z,3764.00
2023-01-21T11:16:54.115Z,3768.00
2023-01-21T11:17:54.414Z,3760.00
2023-01-21T11:18:54.743Z,3748.00
2023-01-21T11:19:55.036Z,3760.00
2023-01-21T11:20:55.305Z,3744.00
2023-01-21T11:21:56.318Z,3732.00
2023-01-21T11:22:55.923Z,3732.00
2023-01-21T11:23:56.127Z,3736.00
2023-01-21T11:24:56.315Z,3724.00
2023-01-21T11:25:56.573Z,3752.00
2023-01-21T11:26:56.891Z,3720.00
2023-01-21T11:27:57.150Z,3700.00
2023-01-21T11:28:57.417Z,3692.00
2023-01-21T11:29:57.665Z,3688.00
2023-01-21T11:30:58.552Z,3688.00
2023-01-21T11:31:58.287Z,3668.00
2023-01-21T11:32:58.419Z,3632.00
2023-01-21T11:33:58.726Z,3600.00
2023-01-21T11:34:58.997Z,3564.00
2023-01-21T11:35:59.511Z,3548.00
2023-01-21T11:36:59.592Z,3508.00
2023-01-21T11:37:59.853Z,3472.00
2023-01-21T11:39:00.158Z,3448.00
2023-01-21T11:40:00.423Z,3420.00
2023-01-21T11:41:00.699Z,3408.00
2023-01-21T11:42:00.970Z,3372.00
2023-01-21T11:43:01.226Z,3344.00
2023-01-21T11:44:01.519Z,3316.00
2023-01-21T11:45:01.777Z,3276.00
2023-01-21T11:46:02.056Z,3248.00
2023-01-21T11:47:02.269Z,3208.00
2023-01-21T11:48:02.513Z,3156.00
2023-01-21T11:49:02.787Z,3092.00
2023-01-21T11:50:03.040Z,3012.00
2023-01-21T11:51:03.324Z,2948.00
2023-01-21T11:52:03.613Z,2860.00
2023-01-21T11:53:03.862Z,2808.00
2023-01-21T11:54:04.139Z,2752.00
2023-01-21T11:55:04.398Z,2716.00
2023-01-21T11:56:04.660Z,2680.00
2023-01-21T11:57:04.931Z,2664.00
2023-01-21T11:58:05.210Z,2668.00
2023-01-21T11:59:05.471Z,2684.00
2023-01-21T12:00:05.708Z,2720.00
2023-01-21T12:01:05.971Z,2740.00
2023-01-21T12:02:06.223Z,2820.00
2023-01-21T12:03:06.495Z,2836.00
2023-01-21T12:04:06.826Z,2884.00
2023-01-21T12:05:07.095Z,2904.00
2023-01-21T12:06:07.366Z,2944.00
2023-01-21T12:07:07.673Z,2984.00
2023-01-21T12:08:07.922Z,3012.00
2023-01-21T12:09:08.223Z,3052.00
2023-01-21T12:10:08.499Z,3068.00
2023-01-21T12:11:08.734Z,3096.00
2023-01-21T12:12:08.986Z,3116.00
2023-01-21T12:13:09.235Z,3128.00
2023-01-21T12:14:09.505Z,3140.00
2023-01-21T12:15:09.784Z,3132.00
2023-01-21T12:16:10.075Z,3128.00
2023-01-21T12:17:10.365Z,3120.00
2023-01-21T12:18:10.634Z,3104.00
2023-01-21T12:19:10.943Z,3116.00
2023-01-21T12:20:11.201Z,3112.00
2023-01-21T12:21:11.489Z,3128.00
2023-01-21T12:22:11.734Z,3120.00
2023-01-21T12:23:12.018Z,3128.00
2023-01-21T12:24:12.307Z,3104.00
2023-01-21T12:25:12.579Z,3084.00
2023-01-21T12:26:12.855Z,2964.00
2023-01-21T12:27:13.119Z,2960.00
2023-01-21T12:28:13.406Z,2880.00
2023-01-21T12:29:13.753Z,2692.00
2023-01-21T12:30:14.044Z,2592.00
2023-01-21T12:31:14.439Z,2372.00
2023-01-21T12:32:14.599Z,2196.00
2023-01-21T12:33:14.879Z,2068.00
2023-01-21T12:34:15.407Z,2116.00
2023-01-21T12:35:15.721Z,2116.00
2023-01-21T12:36:16.117Z,2060.00
2023-01-21T12:37:17.268Z,1972.00
2023-01-21T12:40:52.021Z,2036.00
2023-01-21T12:41:50.738Z,1956.00
2023-01-21T12:42:51.020Z,2168.00
2023-01-21T12:43:51.282Z,2052.00
2023-01-21T12:44:51.591Z,2076.00
2023-01-21T12:45:51.884Z,2132.00
2023-01-21T12:46:52.334Z,1968.00
2023-01-21T12:47:52.482Z,2168.00
2023-01-21T12:48:52.752Z,2160.00
2023-01-21T12:49:53.016Z,2216.00
2023-01-21T12:50:53.330Z,2112.00
2023-01-21T12:51:53.655Z,2136.00
2023-01-21T12:52:53.943Z,2060.00
2023-01-21T12:53:54.238Z,1996.00